Weather at Ulu Ulu Resort Heliport

Public forecast

Using degrees Celsius for public forecast. Weather courtesy of forecast.io.

Closest aviation weather report (METAR) to Ulu Ulu Resort Heliport

Report is more than 6 hours old.

Closest report is Brunei International Airport, 27.1 nm (50.1 km) NNW. Retrieved 2022/09/17 19:00 UTC (14 days ago):

WBSB 171900Z 17002KT 9999 FEW004 SCT030 BKN140 26/26 Q1009 NOSIG

Closest aviation forecast (TAF) to Ulu Ulu Resort Heliport

Forecast is more than 12 hours old.

Closest forecast is Brunei International Airport, 27.1 nm (50.1 km) NNW. Retrieved 2022/09/17 18:09 UTC (14 days ago):

TAF WBSB 171700Z 1718/1900 16004KT 9999 FEW004 BECMG 1800/1802 20005KT FEW015 FEW016CB